Time;durP1;ratioP1;P1;durP2;ratioP2;P2;SDS_P1;SDS_P2;PMS_P1;PMS_P2;Temp;Humidity;BMP_temperature;BMP_pressure;BME280_temperature;BME280_humidity;BME280_pressure;Samples;Min_cycle;Max_cycle;Signal;HPM_P1;HPM_P2
2023/10/27 00:00:48;;;;;;;4.88;3.25;;;;;;;11.97;81.79;99574.47;7390842;19;20014;-66
2023/10/27 00:03:15;;;;;;;6.07;3.50;;;;;;;11.97;81.71;99579.78;7392406;19;20480;-66
2023/10/27 00:05:43;;;;;;;7.20;3.50;;;;;;;11.94;81.82;99572.97;7390217;19;20030;-66
2023/10/27 00:08:11;;;;;;;8.77;3.50;;;;;;;11.92;81.84;99569.63;7391494;19;20018;-65
2023/10/27 00:10:39;;;;;;;7.60;3.58;;;;;;;11.92;81.82;99564.31;7389282;19;20496;-65
2023/10/27 00:13:06;;;;;;;5.50;3.20;;;;;;;11.97;81.54;99563.84;7392531;19;20018;-65
2023/10/27 00:15:34;;;;;;;5.13;3.38;;;;;;;11.92;81.81;99566.13;7392295;19;20022;-66
2023/10/27 00:18:02;;;;;;;6.28;3.63;;;;;;;11.94;81.66;99562.34;7391241;19;20007;-66
2023/10/27 00:20:29;;;;;;;4.78;3.42;;;;;;;11.93;81.83;99555.38;7391006;19;20014;-68
2023/10/27 00:22:57;;;;;;;6.20;3.72;;;;;;;11.95;81.85;99563.19;7391211;19;20035;-68
2023/10/27 00:25:25;;;;;;;6.60;3.17;;;;;;;11.93;81.84;99560.66;7390526;19;20014;-69
2023/10/27 00:27:52;;;;;;;4.63;3.40;;;;;;;11.95;81.66;99548.09;7392051;19;20019;-69
2023/10/27 00:30:20;;;;;;;5.47;3.33;;;;;;;11.95;81.60;99556.06;7397439;19;20476;-69
2023/10/27 00:32:48;;;;;;;6.07;3.45;;;;;;;11.97;81.83;99555.91;7399033;19;20033;-68
2023/10/27 00:35:16;;;;;;;7.50;3.50;;;;;;;11.91;81.74;99540.59;7398836;19;20036;-68
2023/10/27 00:37:43;;;;;;;5.97;3.72;;;;;;;11.87;81.64;99544.53;7396134;19;20390;-67
2023/10/27 00:40:12;;;;;;;6.22;3.85;;;;;;;11.91;81.75;99545.91;7397483;19;20015;-66
2023/10/27 00:42:41;;;;;;;6.10;3.42;;;;;;;11.91;81.88;99545.91;7398994;19;20051;-66
2023/10/27 00:45:09;;;;;;;5.75;3.60;;;;;;;11.91;81.79;99544.09;7399166;19;20040;-66
2023/10/27 00:47:36;;;;;;;4.88;3.40;;;;;;;11.92;81.63;99542.25;7398752;19;20023;-66
2023/10/27 00:50:05;;;;;;;6.30;3.65;;;;;;;11.95;81.74;99549.94;7394407;19;20039;-66
2023/10/27 00:52:33;;;;;;;6.18;3.47;;;;;;;11.84;81.97;99543.03;7398432;19;20511;-67
2023/10/27 00:55:01;;;;;;;6.97;3.60;;;;;;;11.91;82.18;99545.91;7398346;19;20040;-67
2023/10/27 00:57:29;;;;;;;5.90;3.42;;;;;;;11.91;82.27;99538.78;7397534;19;20014;-67
2023/10/27 00:59:57;;;;;;;5.30;3.55;;;;;;;11.91;82.16;99535.28;7394592;19;20047;-67
2023/10/27 01:02:26;;;;;;;6.45;3.70;;;;;;;11.90;82.15;99538.91;7398646;19;20044;-67
2023/10/27 01:04:53;;;;;;;6.75;4.10;;;;;;;11.90;81.95;99528.31;7396633;19;20031;-67
2023/10/27 01:07:23;;;;;;;6.65;3.80;;;;;;;11.91;81.86;99528.16;7397808;19;20011;-68
2023/10/27 01:09:51;;;;;;;5.88;3.72;;;;;;;11.83;82.07;99524.56;7394619;19;20021;-68
2023/10/27 01:12:19;;;;;;;6.00;4.10;;;;;;;11.81;82.66;99523.88;7396261;19;20035;-68
2023/10/27 01:14:46;;;;;;;6.85;3.70;;;;;;;11.68;82.81;99522.44;7397970;19;20038;-68
2023/10/27 01:17:14;;;;;;;8.43;3.80;;;;;;;11.73;82.76;99518.50;7397146;19;20025;-68
2023/10/27 01:19:42;;;;;;;4.85;3.42;;;;;;;11.72;82.73;99517.69;7394437;19;20014;-68
2023/10/27 01:22:14;;;;;;;6.05;3.70;;;;;;;11.79;82.54;99515.22;7397347;19;20079;-68
2023/10/27 01:24:42;;;;;;;5.03;3.50;;;;;;;11.77;82.61;99515.41;7397776;19;20022;-68
2023/10/27 01:27:10;;;;;;;6.22;4.15;;;;;;;11.81;82.48;99505.31;7397538;19;20014;-68
2023/10/27 01:29:38;;;;;;;5.93;3.78;;;;;;;11.81;82.35;99508.78;7393604;19;20011;-68
2023/10/27 01:32:05;;;;;;;6.05;3.70;;;;;;;11.77;82.69;99496.81;7396973;19;20363;-68
2023/10/27 01:34:33;;;;;;;6.22;3.88;;;;;;;11.69;82.93;99497.59;7396778;19;20022;-68
2023/10/27 01:37:01;;;;;;;5.45;3.55;;;;;;;11.74;82.72;99485.69;7397534;19;20018;-64
2023/10/27 01:39:28;;;;;;;5.35;3.58;;;;;;;11.72;82.74;99491.16;7393073;19;20015;-64
2023/10/27 01:41:56;;;;;;;5.80;3.47;;;;;;;11.68;83.04;99487.16;7396962;19;20026;-64
2023/10/27 01:44:23;;;;;;;4.70;3.10;;;;;;;11.70;82.95;99491.28;7396594;19;20398;-64
2023/10/27 01:46:51;;;;;;;4.93;3.50;;;;;;;11.74;82.75;99491.81;7396111;19;20014;-64
2023/10/27 01:49:18;;;;;;;5.57;3.30;;;;;;;11.70;82.78;99479.84;7393829;19;20357;-64
2023/10/27 01:51:46;;;;;;;5.30;3.30;;;;;;;11.71;82.98;99485.03;7396743;19;20411;-64
2023/10/27 01:54:14;;;;;;;5.85;3.58;;;;;;;11.73;82.89;99474.25;7396034;19;20381;-64
2023/10/27 01:56:42;;;;;;;5.43;3.58;;;;;;;11.80;82.49;99474.47;7395197;19;20116;-64
2023/10/27 01:59:09;;;;;;;5.75;3.20;;;;;;;11.77;82.45;99472.13;7394473;19;20026;-64
2023/10/27 02:01:37;;;;;;;5.47;3.45;;;;;;;11.79;82.27;99468.34;7395117;19;20018;-64
2023/10/27 02:04:04;;;;;;;5.63;3.42;;;;;;;11.79;82.49;99471.00;7395716;19;20025;-64
2023/10/27 02:06:32;;;;;;;5.00;3.20;;;;;;;11.79;82.61;99470.13;7394744;19;20014;-64
2023/10/27 02:09:00;;;;;;;5.55;3.08;;;;;;;11.81;82.32;99479.63;7394591;19;20014;-64
2023/10/27 02:11:27;;;;;;;4.13;2.55;;;;;;;11.82;82.55;99475.97;7393770;19;20015;-64
2023/10/27 02:13:55;;;;;;;4.85;3.17;;;;;;;11.79;82.63;99473.66;7395769;19;20461;-66
2023/10/27 02:16:23;;;;;;;4.45;3.17;;;;;;;11.83;82.34;99479.47;7396144;19;20022;-66
2023/10/27 02:18:50;;;;;;;5.90;3.20;;;;;;;11.79;82.56;99481.59;7393914;19;20022;-66
2023/10/27 02:21:18;;;;;;;5.05;3.40;;;;;;;11.80;82.58;99479.78;7394574;19;20502;-68
2023/10/27 02:23:46;;;;;;;4.68;2.90;;;;;;;11.83;82.31;99483.00;7394321;19;20021;-69
2023/10/27 02:26:13;;;;;;;4.13;2.85;;;;;;;11.81;82.55;99487.56;7396123;19;20594;-70
2023/10/27 02:28:41;;;;;;;3.90;2.70;;;;;;;11.80;82.50;99480.63;7395899;19;20037;-67
2023/10/27 02:31:09;;;;;;;4.03;3.03;;;;;;;11.85;82.25;99483.66;7394737;19;20022;-67
2023/10/27 02:33:36;;;;;;;5.07;2.90;;;;;;;11.79;82.83;99478.09;7395842;19;20018;-68
2023/10/27 02:36:04;;;;;;;3.53;2.70;;;;;;;11.84;82.40;99475.88;7393607;19;20022;-68
2023/10/27 02:38:32;;;;;;;4.10;2.83;;;;;;;11.83;82.28;99484.75;7393823;19;20043;-69
2023/10/27 02:41:07;;;;;;;7.50;2.83;;;;;;;11.87;82.37;99476.41;7393790;19;20031;-71
2023/10/27 02:43:34;;;;;;;4.70;2.90;;;;;;;11.80;82.47;99472.66;7394937;19;20364;-72
2023/10/27 02:46:02;;;;;;;4.35;2.58;;;;;;;11.76;82.65;99478.44;7394994;19;20479;-72
2023/10/27 02:48:31;;;;;;;3.92;2.60;;;;;;;11.71;82.89;99474.41;7394027;19;20019;-70
2023/10/27 02:51:01;;;;;;;4.15;2.65;;;;;;;11.75;82.50;99474.09;7392648;19;20014;-69
2023/10/27 02:53:29;;;;;;;5.88;2.70;;;;;;;11.73;82.71;99476.06;7392582;19;20022;-66
2023/10/27 02:56:04;;;;;;;4.22;2.80;;;;;;;11.80;82.49;99475.31;7394837;19;20022;-66
2023/10/27 02:58:31;;;;;;;4.43;2.63;;;;;;;11.76;82.68;99473.13;7393924;19;20098;-64
2023/10/27 03:00:59;;;;;;;3.67;2.53;;;;;;;11.70;82.92;99470.06;7391686;19;20014;-64
2023/10/27 03:03:27;;;;;;;3.63;2.50;;;;;;;11.74;82.41;99456.50;7394145;19;20409;-64
2023/10/27 03:05:55;;;;;;;5.05;2.60;;;;;;;11.77;82.49;99462.34;7394942;19;20362;-64
2023/10/27 03:08:23;;;;;;;4.70;2.50;;;;;;;11.76;82.51;99463.34;7393171;19;20479;-64
2023/10/27 03:10:50;;;;;;;3.75;2.53;;;;;;;11.77;82.37;99470.31;7392823;19;20028;-63
2023/10/27 03:13:18;;;;;;;4.43;2.40;;;;;;;11.67;82.88;99472.19;7392790;19;20047;-63
2023/10/27 03:15:46;;;;;;;3.80;2.20;;;;;;;11.69;82.68;99460.47;7394271;19;20086;-64
2023/10/27 03:18:14;;;;;;;6.60;2.40;;;;;;;11.71;82.69;99463.81;7392637;19;20014;-64
2023/10/27 03:20:41;;;;;;;3.05;2.20;;;;;;;11.68;82.71;99463.28;7392568;19;20375;-64
2023/10/27 03:23:09;;;;;;;4.30;2.03;;;;;;;11.69;82.74;99464.94;7393339;19;20053;-64
2023/10/27 03:25:36;;;;;;;3.10;2.30;;;;;;;11.70;82.71;99472.72;7393121;19;20039;-64
2023/10/27 03:28:04;;;;;;;3.03;2.08;;;;;;;11.68;82.77;99469.41;7391464;19;20023;-64
2023/10/27 03:30:31;;;;;;;2.92;2.13;;;;;;;11.73;82.62;99465.47;7391891;19;20364;-64
2023/10/27 03:32:59;;;;;;;2.90;1.60;;;;;;;11.69;82.65;99463.13;7393561;19;20019;-64
2023/10/27 03:35:28;;;;;;;4.32;2.00;;;;;;;11.75;82.70;99455.53;7390990;19;20022;-64
2023/10/27 03:37:55;;;;;;;6.38;2.38;;;;;;;11.80;82.24;99469.19;7392947;19;20014;-64
2023/10/27 03:40:23;;;;;;;3.25;1.85;;;;;;;11.68;82.48;99461.44;7390337;19;20049;-64
2023/10/27 03:42:51;;;;;;;3.30;1.77;;;;;;;11.68;82.64;99466.75;7392702;19;20039;-64
2023/10/27 03:45:18;;;;;;;4.07;1.80;;;;;;;11.70;82.38;99463.94;7392954;19;20019;-64
2023/10/27 03:47:46;;;;;;;3.58;1.80;;;;;;;11.73;82.58;99465.47;7392819;19;20019;-64
2023/10/27 03:50:13;;;;;;;2.78;1.83;;;;;;;11.76;82.54;99471.31;7391672;19;20022;-64
2023/10/27 03:52:41;;;;;;;3.88;1.70;;;;;;;11.74;82.48;99467.94;7392602;19;20014;-64
2023/10/27 03:55:11;;;;;;;3.67;1.85;;;;;;;11.70;82.53;99479.84;7393174;19;20018;-64
2023/10/27 03:57:41;;;;;;;5.43;2.33;;;;;;;11.68;82.81;99482.66;7392788;19;20031;-64
2023/10/27 04:00:09;;;;;;;5.35;2.03;;;;;;;11.67;82.92;99480.97;7389081;19;20022;-64
2023/10/27 04:02:36;;;;;;;3.30;1.83;;;;;;;11.71;82.65;99478.84;7392658;19;20082;-67
2023/10/27 04:05:04;;;;;;;3.65;1.90;;;;;;;11.69;82.66;99475.53;7392738;19;20705;-66
2023/10/27 04:07:33;;;;;;;3.50;1.67;;;;;;;11.64;82.68;99476.00;7392486;19;20022;-65
2023/10/27 04:10:00;;;;;;;4.13;1.90;;;;;;;11.65;82.91;99471.53;7389856;19;20446;-65
2023/10/27 04:12:28;;;;;;;3.50;1.80;;;;;;;11.70;82.46;99479.84;7392204;19;20022;-65
2023/10/27 04:14:56;;;;;;;2.80;1.95;;;;;;;11.65;82.79;99469.69;7392068;19;20014;-66
2023/10/27 04:17:23;;;;;;;2.25;1.75;;;;;;;11.66;82.79;99470.53;7391503;19;20018;-68
2023/10/27 04:19:51;;;;;;;3.03;1.60;;;;;;;11.67;82.61;99467.72;7389081;19;20342;-67
2023/10/27 04:22:19;;;;;;;3.63;1.70;;;;;;;11.62;82.74;99466.53;7392321;19;20031;-67
2023/10/27 04:24:46;;;;;;;2.75;1.60;;;;;;;11.64;82.84;99469.88;7392042;19;20014;-68
2023/10/27 04:27:14;;;;;;;4.13;1.73;;;;;;;11.68;82.87;99471.22;7392247;19;20015;-68
2023/10/27 04:29:42;;;;;;;2.97;1.40;;;;;;;11.73;82.36;99479.56;7389404;19;20018;-67
2023/10/27 04:32:10;;;;;;;2.38;1.33;;;;;;;11.74;82.35;99470.59;7391671;19;20021;-71
2023/10/27 04:34:38;;;;;;;2.53;1.50;;;;;;;11.76;82.27;99473.13;7393655;19;20082;-70
2023/10/27 04:37:06;;;;;;;4.68;1.50;;;;;;;11.77;82.31;99470.31;7399776;19;20018;-71
2023/10/27 04:39:34;;;;;;;3.40;1.55;;;;;;;11.75;82.15;99471.44;7389258;19;20021;-71
2023/10/27 04:42:01;;;;;;;3.58;1.50;;;;;;;11.75;82.41;99468.78;7389604;19;20022;-71
2023/10/27 04:44:29;;;;;;;2.90;1.80;;;;;;;11.77;82.59;99472.97;7389909;19;20380;-71
2023/10/27 04:46:56;;;;;;;3.90;1.55;;;;;;;11.80;82.38;99472.66;7389828;19;20019;-71
2023/10/27 04:49:26;;;;;;;2.50;1.38;;;;;;;11.83;82.19;99461.78;7388487;19;20023;-69
2023/10/27 04:51:53;;;;;;;2.78;1.30;;;;;;;11.79;82.21;99463.03;7389690;19;20022;-67
2023/10/27 04:54:21;;;;;;;1.85;1.20;;;;;;;11.70;82.49;99454.16;7392304;19;20014;-73
2023/10/27 04:56:49;;;;;;;4.53;1.77;;;;;;;11.73;82.45;99457.50;7390660;19;20359;-69
2023/10/27 04:59:16;;;;;;;2.25;1.10;;;;;;;11.74;82.67;99449.38;7388364;19;20019;-68
2023/10/27 05:01:44;;;;;;;2.53;1.42;;;;;;;11.66;82.78;99451.97;7389609;19;20018;-67
2023/10/27 05:04:11;;;;;;;1.50;1.30;;;;;;;11.66;83.14;99450.16;7389234;19;20353;-71
2023/10/27 05:06:39;;;;;;;2.42;1.30;;;;;;;11.72;82.75;99454.03;7390703;19;20014;-70
2023/10/27 05:09:07;;;;;;;3.95;1.50;;;;;;;11.74;82.79;99448.56;7389931;19;20039;-70
2023/10/27 05:11:35;;;;;;;3.97;1.48;;;;;;;11.69;82.83;99452.50;7387879;19;20449;-69
2023/10/27 05:14:02;;;;;;;2.47;1.30;;;;;;;11.71;82.47;99455.84;7390481;19;20047;-64
2023/10/27 05:16:30;;;;;;;3.13;1.23;;;;;;;11.70;82.65;99453.34;7397957;19;20033;-65
2023/10/27 05:18:58;;;;;;;4.32;1.42;;;;;;;11.69;82.81;99455.16;7396783;19;20046;-66
2023/10/27 05:21:27;;;;;;;2.55;1.30;;;;;;;11.66;82.92;99450.16;7396253;19;20018;-67
2023/10/27 05:23:57;;;;;;;2.53;1.40;;;;;;;11.63;82.89;99446.97;7397219;19;20011;-68
2023/10/27 05:26:26;;;;;;;2.60;1.20;;;;;;;11.72;82.67;99448.72;7396208;19;20022;-68
2023/10/27 05:28:53;;;;;;;2.42;1.30;;;;;;;11.71;82.39;99442.59;7396062;19;20021;-68
2023/10/27 05:31:25;;;;;;;4.32;1.45;;;;;;;11.62;82.81;99437.34;7396354;19;20486;-68
2023/10/27 05:33:52;;;;;;;3.78;1.40;;;;;;;11.62;82.72;99434.69;7397655;19;20024;-68
2023/10/27 05:36:20;;;;;;;3.25;1.30;;;;;;;11.69;82.40;99428.63;7397029;19;20018;-68
2023/10/27 05:38:47;;;;;;;2.35;1.20;;;;;;;11.69;82.77;99430.47;7391624;19;20015;-67
2023/10/27 05:41:15;;;;;;;2.90;1.20;;;;;;;11.63;82.68;99428.41;7395465;19;20510;-67
2023/10/27 05:43:43;;;;;;;2.65;1.50;;;;;;;11.68;82.64;99434.94;7396810;19;20368;-67
2023/10/27 05:46:13;;;;;;;2.35;1.25;;;;;;;11.72;82.45;99427.50;7396756;19;20572;-67
2023/10/27 05:48:41;;;;;;;3.13;1.30;;;;;;;11.71;82.21;99431.97;7393753;19;20015;-67
2023/10/27 05:51:09;;;;;;;5.65;1.75;;;;;;;11.71;82.33;99426.69;7394533;19;20018;-67
2023/10/27 05:53:36;;;;;;;3.58;1.52;;;;;;;11.73;82.39;99425.69;7396751;19;20026;-67
2023/10/27 05:56:04;;;;;;;2.42;1.38;;;;;;;11.74;82.36;99430.81;7396283;19;20333;-67
2023/10/27 05:58:35;;;;;;;3.10;1.55;;;;;;;11.75;82.26;99423.69;7394885;19;20019;-67
2023/10/27 06:01:03;;;;;;;3.50;1.60;;;;;;;11.72;82.18;99435.47;7393668;19;20039;-68
2023/10/27 06:03:31;;;;;;;3.80;1.38;;;;;;;11.73;82.42;99434.47;7396375;19;20022;-67
2023/10/27 06:05:58;;;;;;;2.35;1.30;;;;;;;11.73;82.50;99433.63;7395696;19;20044;-67
2023/10/27 06:08:26;;;;;;;2.60;1.42;;;;;;;11.74;82.47;99433.47;7395246;19;20047;-68
2023/10/27 06:10:53;;;;;;;3.25;1.67;;;;;;;11.80;82.15;99432.88;7394629;19;20014;-68
2023/10/27 06:13:21;;;;;;;3.47;1.70;;;;;;;11.85;82.02;99435.91;7395741;19;20015;-67
2023/10/27 06:15:48;;;;;;;7.47;2.08;;;;;;;11.84;82.08;99439.56;7395230;19;20354;-67
2023/10/27 06:18:16;;;;;;;6.07;2.05;;;;;;;11.82;82.31;99432.72;7395010;19;20492;-67
2023/10/27 06:20:43;;;;;;;6.90;1.95;;;;;;;11.83;82.22;99445.88;7392101;19;20045;-67
2023/10/27 06:23:11;;;;;;;5.20;1.90;;;;;;;11.81;82.05;99445.13;7393692;19;20010;-67
2023/10/27 06:25:41;;;;;;;5.53;2.40;;;;;;;11.85;82.26;99435.91;7395032;19;20370;-67
2023/10/27 06:28:09;;;;;;;4.55;2.42;;;;;;;11.83;82.27;99434.38;7393177;19;20510;-68
2023/10/27 06:30:37;;;;;;;4.70;2.40;;;;;;;11.85;82.28;99441.22;7394055;19;20039;-68
2023/10/27 06:33:06;;;;;;;5.63;2.90;;;;;;;11.86;82.24;99442.88;7395944;19;20022;-69
2023/10/27 06:35:34;;;;;;;5.13;2.65;;;;;;;11.84;82.09;99446.69;7395521;19;20347;-68
2023/10/27 06:38:01;;;;;;;4.97;2.47;;;;;;;11.88;82.21;99440.09;7394473;19;20039;-68
2023/10/27 06:40:29;;;;;;;5.50;3.03;;;;;;;11.97;81.87;99444.47;7392097;19;20022;-68
2023/10/27 06:42:57;;;;;;;7.68;3.40;;;;;;;11.88;82.11;99443.56;7394435;19;20019;-68
2023/10/27 06:45:25;;;;;;;6.78;3.22;;;;;;;11.88;82.18;99442.75;7394582;19;20377;-68
2023/10/27 06:47:52;;;;;;;8.63;3.50;;;;;;;11.88;82.48;99450.72;7394125;19;20017;-68
2023/10/27 06:50:20;;;;;;;8.98;3.83;;;;;;;11.86;82.36;99450.00;7393918;19;20360;-68
2023/10/27 06:52:50;;;;;;;7.85;3.78;;;;;;;11.89;82.39;99447.06;7392804;19;20039;-68
2023/10/27 06:55:18;;;;;;;11.30;4.20;;;;;;;11.90;82.23;99449.53;7393979;19;20040;-66
2023/10/27 06:57:45;;;;;;;7.43;3.92;;;;;;;11.92;82.12;99452.88;7398590;19;20019;-66
2023/10/27 07:00:15;;;;;;;8.68;4.40;;;;;;;11.91;82.25;99461.84;7388861;19;20402;-66
2023/10/27 07:02:45;;;;;;;10.48;4.55;;;;;;;11.93;82.12;99459.03;7393391;19;20018;-66
2023/10/27 07:05:26;;;;;;;7.88;4.30;;;;;;;11.88;82.26;99458.66;7393554;19;20022;-66
2023/10/27 07:07:54;;;;;;;10.15;5.30;;;;;;;11.91;82.25;99459.19;7392563;19;20010;-66
2023/10/27 07:10:22;;;;;;;8.55;4.93;;;;;;;11.94;82.15;99461.53;7389810;19;20034;-66
2023/10/27 07:12:50;;;;;;;10.27;5.22;;;;;;;11.92;82.15;99457.38;7392826;19;20028;-65
2023/10/27 07:15:20;;;;;;;11.52;5.45;;;;;;;12.00;82.09;99460.09;7393881;19;20018;-66
2023/10/27 07:17:48;;;;;;;9.30;5.32;;;;;;;12.00;81.84;99459.25;7392550;19;20022;-66
2023/10/27 07:20:16;;;;;;;11.43;7.60;;;;;;;12.03;81.70;99465.09;7389161;19;20018;-67
2023/10/27 07:22:44;;;;;;;10.55;6.35;;;;;;;12.02;81.83;99462.56;7391902;19;20504;-67
2023/10/27 07:25:11;;;;;;;12.60;6.50;;;;;;;11.98;81.97;99458.56;7396303;19;20078;-66
2023/10/27 07:27:39;;;;;;;11.65;7.13;;;;;;;11.95;82.07;99462.38;7392973;19;20042;-67
2023/10/27 07:30:07;;;;;;;11.77;6.97;;;;;;;11.95;82.15;99462.38;7388229;19;20499;-67
2023/10/27 07:32:34;;;;;;;15.30;9.40;;;;;;;12.00;81.76;99461.91;7392089;19;20048;-66
2023/10/27 07:35:05;;;;;;;12.70;7.07;;;;;;;12.03;81.46;99456.28;7390717;19;20029;-66
2023/10/27 07:37:32;;;;;;;12.15;7.53;;;;;;;12.03;81.52;99453.63;7391612;19;20513;-67
2023/10/27 07:40:00;;;;;;;13.27;7.40;;;;;;;12.06;81.26;99456.00;7389443;19;20032;-67
2023/10/27 07:42:28;;;;;;;12.60;7.85;;;;;;;12.04;81.29;99461.44;7392389;19;20022;-66
2023/10/27 07:44:59;;;;;;;12.90;7.80;;;;;;;12.07;81.27;99447.03;7389804;19;20845;-67
2023/10/27 07:47:28;;;;;;;12.85;7.75;;;;;;;12.01;81.36;99452.94;7390787;19;20018;-67
2023/10/27 07:49:56;;;;;;;13.55;7.88;;;;;;;12.04;81.42;99452.66;7389506;19;20368;-66
2023/10/27 07:52:25;;;;;;;15.48;8.30;;;;;;;12.03;81.34;99459.78;7391452;19;20648;-66
2023/10/27 07:54:53;;;;;;;13.25;7.97;;;;;;;12.04;80.93;99455.31;7391798;19;20034;-67
2023/10/27 07:57:23;;;;;;;15.27;8.25;;;;;;;12.01;81.34;99456.44;7392270;19;20025;-66
2023/10/27 07:59:51;;;;;;;12.82;8.20;;;;;;;12.01;81.18;99451.13;7386644;19;20018;-66
2023/10/27 08:02:19;;;;;;;12.93;7.93;;;;;;;12.01;81.12;99460.91;7391833;19;20078;-66
2023/10/27 08:04:46;;;;;;;13.30;8.43;;;;;;;11.99;80.97;99455.78;7390466;19;20460;-66
2023/10/27 08:07:14;;;;;;;12.93;8.15;;;;;;;11.90;81.19;99465.47;7390537;19;20516;-67
2023/10/27 08:09:42;;;;;;;12.77;8.48;;;;;;;12.04;80.85;99466.75;7388377;19;20050;-66
2023/10/27 08:12:10;;;;;;;14.10;8.32;;;;;;;12.02;80.99;99463.44;7389883;19;20047;-67
2023/10/27 08:14:38;;;;;;;12.52;7.88;;;;;;;12.06;80.74;99459.47;7390936;19;20356;-66
2023/10/27 08:17:05;;;;;;;12.73;7.60;;;;;;;12.07;80.53;99471.75;7391291;19;20029;-66
2023/10/27 08:19:36;;;;;;;13.32;7.63;;;;;;;12.03;80.57;99469.56;7387047;19;20783;-66
2023/10/27 08:22:03;;;;;;;13.88;8.45;;;;;;;12.03;80.76;99478.34;7391890;19;20023;-67
2023/10/27 08:24:31;;;;;;;14.43;8.32;;;;;;;12.02;80.80;99473.19;7391411;19;20039;-66
2023/10/27 08:26:59;;;;;;;12.15;8.13;;;;;;;12.02;81.03;99475.84;7391452;19;20020;-66
2023/10/27 08:29:26;;;;;;;13.15;7.65;;;;;;;12.03;80.61;99478.34;7388251;19;20018;-66
2023/10/27 08:31:54;;;;;;;12.13;7.63;;;;;;;12.09;80.52;99484.84;7389198;19;20483;-66
2023/10/27 08:34:24;;;;;;;12.60;7.55;;;;;;;12.09;80.57;99479.53;7388641;19;20078;-65
2023/10/27 08:36:52;;;;;;;12.80;7.97;;;;;;;12.08;80.51;99484.03;7390511;19;20050;-66
2023/10/27 08:39:24;;;;;;;13.70;8.05;;;;;;;12.16;80.31;99481.41;7387869;19;20023;-66
2023/10/27 08:41:52;;;;;;;13.02;7.53;;;;;;;12.18;80.36;99479.47;7388569;19;20037;-66
2023/10/27 08:44:20;;;;;;;13.52;7.88;;;;;;;12.21;80.04;99483.63;7390916;19;20061;-66
2023/10/27 08:46:53;;;;;;;11.20;7.40;;;;;;;12.23;79.94;99486.94;7391343;19;20018;-67
2023/10/27 08:49:21;;;;;;;11.63;7.18;;;;;;;12.26;79.93;99485.81;7388798;19;20026;-66
2023/10/27 08:51:49;;;;;;;11.80;7.43;;;;;;;12.26;80.11;99486.66;7397624;19;20022;-66
2023/10/27 08:54:18;;;;;;;12.55;7.35;;;;;;;12.23;80.07;99488.78;7397567;19;20018;-66
2023/10/27 08:56:46;;;;;;;14.38;7.93;;;;;;;12.28;79.91;99481.16;7397228;19;20353;-66
2023/10/27 08:59:16;;;;;;;13.77;8.35;;;;;;;12.39;79.67;99487.06;7392514;19;20043;-67
2023/10/27 09:01:46;;;;;;;16.27;8.80;;;;;;;12.44;79.55;99487.44;7392523;19;20025;-67
2023/10/27 09:04:16;;;;;;;13.45;7.75;;;;;;;12.39;79.47;99488.88;7397415;19;20047;-67
2023/10/27 09:06:44;;;;;;;13.60;9.15;;;;;;;12.36;79.69;99487.41;7396828;19;20040;-66
2023/10/27 09:09:11;;;;;;;14.35;9.20;;;;;;;12.32;79.62;99495.81;7395195;19;20015;-68
2023/10/27 09:11:45;;;;;;;13.77;8.77;;;;;;;12.27;79.69;99490.97;7396137;19;20019;-66
2023/10/27 09:14:23;;;;;;;14.13;8.00;;;;;;;12.32;79.78;99493.97;7397107;19;20022;-66
2023/10/27 09:17:09;;;;;;;13.35;7.32;;;;;;;12.31;79.73;99492.31;7396845;19;20010;-66
2023/10/27 09:19:37;;;;;;;15.45;7.38;;;;;;;12.17;79.99;99493.72;7393698;19;20025;-66
2023/10/27 09:22:16;;;;;;;14.23;7.97;;;;;;;12.28;79.37;99502.41;7392388;19;20022;-65
2023/10/27 09:24:44;;;;;;;15.05;8.90;;;;;;;12.24;79.51;99499.22;7396507;19;20018;-66
2023/10/27 09:27:13;;;;;;;15.32;7.35;;;;;;;12.22;79.75;99500.38;7397505;19;20048;-66
2023/10/27 09:29:42;;;;;;;13.27;7.60;;;;;;;12.28;79.22;99505.06;7394495;19;20015;-67
2023/10/27 09:32:27;;;;;;;13.05;7.55;;;;;;;12.33;78.72;99511.59;7397290;19;20019;-67
2023/10/27 09:35:13;;;;;;;16.77;8.10;;;;;;;12.36;79.13;99503.31;7395408;19;20500;-66
2023/10/27 09:37:41;;;;;;;13.45;8.07;;;;;;;12.20;79.44;99509.31;7396143;19;20019;-66
2023/10/27 09:40:11;;;;;;;16.30;9.98;;;;;;;12.20;79.62;99505.84;7395033;19;20010;-66
2023/10/27 09:42:40;;;;;;;14.45;9.32;;;;;;;12.16;79.68;99500.00;7395115;19;20047;-66
2023/10/27 09:45:11;;;;;;;13.90;8.02;;;;;;;12.24;79.60;99514.31;7398357;19;20130;-66
2023/10/27 09:47:52;;;;;;;14.05;8.25;;;;;;;12.17;79.74;99516.75;7393966;19;20011;-67
2023/10/27 09:50:24;;;;;;;14.50;8.32;;;;;;;12.22;79.67;99517.16;7392625;19;20010;-66
2023/10/27 09:52:59;;;;;;;15.07;9.13;;;;;;;12.23;79.59;99502.88;7395492;19;20595;-66
2023/10/27 09:55:31;;;;;;;14.32;8.20;;;;;;;12.26;79.58;99504.41;7396142;19;20035;-67
2023/10/27 09:58:01;;;;;;;13.63;8.02;;;;;;;12.17;79.85;99506.13;7395100;19;20045;-66
2023/10/27 10:00:31;;;;;;;13.50;8.07;;;;;;;12.20;79.68;99508.50;7393866;19;20031;-66
2023/10/27 10:03:00;;;;;;;11.13;7.15;;;;;;;12.23;79.51;99510.00;7392138;19;20030;-66
2023/10/27 10:05:48;;;;;;;13.52;7.25;;;;;;;12.29;79.39;99502.28;7395725;19;20019;-66
2023/10/27 10:08:19;;;;;;;12.35;7.60;;;;;;;12.32;79.58;99501.94;7395158;19;20014;-66
2023/10/27 10:11:16;;;;;;;11.45;7.63;;;;;;;12.45;79.08;99506.84;7393197;19;20010;-67
2023/10/27 10:13:48;;;;;;;12.80;7.25;;;;;;;12.33;79.83;99508.94;7396256;19;20043;-66
2023/10/27 10:16:17;;;;;;;13.45;6.80;;;;;;;12.38;79.74;99511.13;7397250;19;20018;-66
2023/10/27 10:18:47;;;;;;;12.00;6.97;;;;;;;12.39;80.04;99507.47;7395123;19;20014;-65
2023/10/27 10:21:32;;;;;;;12.23;7.15;;;;;;;12.46;79.44;99513.00;7393815;19;20027;-66
2023/10/27 10:24:03;;;;;;;11.43;6.90;;;;;;;12.40;79.51;99501.16;7395691;19;20333;-65
2023/10/27 10:27:05;;;;;;;13.00;7.05;;;;;;;12.42;79.67;99501.84;7395650;19;20018;-66
2023/10/27 10:29:33;;;;;;;11.88;6.82;;;;;;;12.35;80.19;99498.16;7393117;19;20011;-66
2023/10/27 10:32:41;;;;;;;12.93;7.30;;;;;;;12.46;79.41;99505.03;7395737;19;20782;-67
2023/10/27 10:35:22;;;;;;;10.85;6.65;;;;;;;12.41;80.02;99497.53;7388919;19;20044;-66
2023/10/27 10:37:53;;;;;;;11.90;6.38;;;;;;;12.49;80.06;99496.75;7391902;19;20023;-67
2023/10/27 10:40:23;;;;;;;11.05;6.70;;;;;;;12.49;79.58;99504.72;7390643;19;20472;-66
2023/10/27 10:43:23;;;;;;;11.35;6.60;;;;;;;12.56;79.35;99495.97;7393351;19;20043;-67
2023/10/27 10:45:56;;;;;;;13.10;6.88;;;;;;;12.49;79.94;99489.63;7393122;19;20011;-65
2023/10/27 10:48:30;;;;;;;10.57;6.78;;;;;;;12.51;79.86;99482.31;7395188;19;20015;-65
2023/10/27 10:51:12;;;;;;;10.57;6.63;;;;;;;12.56;79.38;99487.19;7392141;19;20382;-66
2023/10/27 10:53:54;;;;;;;11.10;7.03;;;;;;;12.53;79.58;99482.19;7394884;19;20468;-67
2023/10/27 10:56:28;;;;;;;11.00;6.35;;;;;;;12.55;79.53;99482.84;7394777;19;20011;-67
2023/10/27 10:59:04;;;;;;;11.57;6.78;;;;;;;12.56;79.73;99487.19;7394403;19;20018;-67
2023/10/27 11:01:41;;;;;;;11.38;6.70;;;;;;;12.53;79.76;99483.00;7392584;19;20023;-66
2023/10/27 11:04:08;;;;;;;12.18;7.00;;;;;;;12.51;79.96;99487.63;7391576;19;20014;-65
2023/10/27 11:06:36;;;;;;;12.02;7.10;;;;;;;12.51;79.78;99484.97;7392367;19;20033;-66
2023/10/27 11:09:04;;;;;;;11.20;6.85;;;;;;;12.57;79.72;99481.69;7393320;19;20029;-66
2023/10/27 11:11:34;;;;;;;10.80;6.57;;;;;;;12.54;79.47;99481.19;7392232;19;20019;-65
2023/10/27 11:14:16;;;;;;;11.77;7.40;;;;;;;12.53;79.30;99475.03;7393838;19;20066;-66
2023/10/27 11:17:14;;;;;;;11.43;6.85;;;;;;;12.65;78.99;99475.59;7394323;19;20039;-66
2023/10/27 11:19:51;;;;;;;10.70;6.35;;;;;;;12.61;79.59;99484.88;7389579;19;20146;-66
2023/10/27 11:22:24;;;;;;;11.52;6.55;;;;;;;12.59;79.66;99481.53;7392354;19;20453;-66
2023/10/27 11:24:52;;;;;;;10.00;6.33;;;;;;;12.49;79.68;99473.69;7394018;19;20544;-66
2023/10/27 11:27:24;;;;;;;13.27;6.85;;;;;;;12.58;79.73;99475.38;7391841;19;20014;-66
2023/10/27 11:30:02;;;;;;;11.98;7.20;;;;;;;12.62;79.42;99475.91;7388224;19;20022;-66
2023/10/27 11:32:35;;;;;;;11.80;6.72;;;;;;;12.62;79.62;99468.78;7392998;19;20528;-66
2023/10/27 11:35:02;;;;;;;12.15;6.70;;;;;;;12.59;79.34;99481.53;7393322;19;20476;-66
2023/10/27 11:37:30;;;;;;;12.60;6.82;;;;;;;12.56;79.40;99472.06;7392663;19;20022;-66
2023/10/27 11:40:16;;;;;;;11.25;6.88;;;;;;;12.64;79.01;99472.13;7389584;19;20018;-66